createdAt,value
2022-10-07T00:02:12.956Z,13.05
2022-10-07T00:04:45.342Z,13.02
2022-10-07T00:07:15.224Z,13.05
2022-10-07T00:09:44.374Z,13.01
2022-10-07T00:12:13.246Z,12.92
2022-10-07T00:14:43.570Z,12.87
2022-10-07T00:17:12.493Z,12.88
2022-10-07T00:19:40.993Z,12.85
2022-10-07T00:22:10.145Z,12.76
2022-10-07T00:24:39.086Z,12.79
2022-10-07T00:27:07.930Z,12.81
2022-10-07T00:29:36.419Z,12.80
2022-10-07T00:32:07.043Z,12.76
2022-10-07T00:34:35.560Z,12.74
2022-10-07T00:37:04.217Z,12.74
2022-10-07T00:39:32.938Z,12.67
2022-10-07T00:42:01.727Z,12.65
2022-10-07T00:44:40.615Z,12.65
2022-10-07T00:47:25.130Z,12.65
2022-10-07T00:49:57.928Z,12.65
2022-10-07T00:52:29.586Z,12.69
2022-10-07T00:55:01.466Z,12.64
2022-10-07T00:57:32.283Z,12.59
2022-10-07T01:00:02.523Z,12.56
2022-10-07T01:02:32.380Z,12.56
2022-10-07T01:05:03.801Z,12.53
2022-10-07T01:07:32.696Z,12.48
2022-10-07T01:10:01.729Z,12.45
2022-10-07T01:12:42.561Z,12.47
2022-10-07T01:15:19.329Z,12.46
2022-10-07T01:17:54.987Z,12.41
2022-10-07T01:20:31.652Z,12.37
2022-10-07T01:23:20.233Z,12.35
2022-10-07T01:26:05.101Z,12.38
2022-10-07T01:28:40.791Z,12.39
2022-10-07T01:31:13.389Z,12.37
2022-10-07T01:33:44.487Z,12.38
2022-10-07T01:36:17.365Z,12.38
2022-10-07T01:39:02.358Z,12.37
2022-10-07T01:41:32.463Z,12.31
2022-10-07T01:44:03.469Z,12.32
2022-10-07T01:46:34.268Z,12.36
2022-10-07T01:49:04.083Z,12.35
2022-10-07T01:51:37.131Z,12.37
2022-10-07T01:54:19.856Z,12.37
2022-10-07T01:57:03.080Z,12.29
2022-10-07T02:00:01.824Z,12.26
2022-10-07T02:03:11.115Z,12.18
2022-10-07T02:05:50.911Z,12.13
2022-10-07T02:08:31.199Z,12.13
2022-10-07T02:11:11.721Z,12.10
2022-10-07T02:13:55.879Z,12.08
2022-10-07T02:16:33.683Z,12.12
2022-10-07T02:19:05.558Z,12.11
2022-10-07T02:21:37.907Z,12.12
2022-10-07T02:24:09.710Z,12.04
2022-10-07T02:26:41.729Z,12.02
2022-10-07T02:29:14.387Z,12.02
2022-10-07T02:31:47.610Z,12.05
2022-10-07T02:34:20.429Z,12.04
2022-10-07T02:36:58.984Z,12.03
2022-10-07T02:39:29.922Z,11.97
2022-10-07T02:42:05.527Z,12.00
2022-10-07T02:44:42.202Z,11.98
2022-10-07T02:47:19.416Z,11.95
2022-10-07T02:49:53.193Z,11.94
2022-10-07T02:52:24.894Z,11.92
2022-10-07T02:54:58.956Z,11.91
2022-10-07T02:57:34.227Z,11.83
2022-10-07T03:00:07.373Z,11.80
2022-10-07T03:02:49.466Z,11.80
2022-10-07T03:05:19.709Z,11.80
2022-10-07T03:07:52.872Z,11.73
2022-10-07T03:10:22.542Z,11.73
2022-10-07T03:12:51.238Z,11.80
2022-10-07T03:15:20.597Z,11.73
2022-10-07T03:17:50.796Z,11.66
2022-10-07T03:20:19.632Z,11.63
2022-10-07T03:22:48.398Z,11.62
2022-10-07T03:25:19.863Z,11.64
2022-10-07T03:27:48.666Z,11.65
2022-10-07T03:30:24.573Z,11.68
2022-10-07T03:32:55.646Z,11.69
2022-10-07T03:35:24.596Z,11.72
2022-10-07T03:37:54.544Z,11.68
2022-10-07T03:40:23.526Z,11.72
2022-10-07T03:42:52.920Z,11.79
2022-10-07T03:45:21.389Z,11.83
2022-10-07T03:47:49.865Z,11.83
2022-10-07T03:50:20.130Z,11.85
2022-10-07T03:52:48.486Z,11.89
2022-10-07T03:55:17.965Z,11.87
2022-10-07T03:57:58.408Z,11.86
2022-10-07T04:00:30.389Z,11.77
2022-10-07T04:02:59.785Z,11.70
2022-10-07T04:05:30.097Z,11.62
2022-10-07T04:07:58.756Z,11.66
2022-10-07T04:10:28.443Z,11.73
2022-10-07T04:12:57.038Z,11.69
2022-10-07T04:15:26.243Z,11.68
2022-10-07T04:17:58.528Z,11.74
2022-10-07T04:20:28.534Z,11.69
2022-10-07T04:22:58.531Z,11.71
2022-10-07T04:25:37.091Z,11.77
2022-10-07T04:28:17.618Z,11.85
2022-10-07T04:30:51.567Z,11.88
2022-10-07T04:33:25.366Z,11.85
2022-10-07T04:35:56.322Z,11.87
2022-10-07T04:38:28.494Z,11.87
2022-10-07T04:41:04.982Z,11.83
2022-10-07T04:43:34.810Z,11.88
2022-10-07T04:46:11.222Z,11.87
2022-10-07T04:48:45.560Z,11.86
2022-10-07T04:51:17.814Z,11.77
2022-10-07T04:53:56.780Z,11.69
2022-10-07T04:56:35.294Z,11.70
2022-10-07T04:59:06.479Z,11.69
2022-10-07T05:01:36.961Z,11.72
2022-10-07T05:04:05.679Z,11.79
2022-10-07T05:06:35.074Z,11.81
2022-10-07T05:09:05.927Z,11.83
2022-10-07T05:11:38.242Z,11.86
2022-10-07T05:14:13.198Z,11.85
2022-10-07T05:16:42.903Z,11.85
2022-10-07T05:19:11.384Z,11.80
2022-10-07T05:21:40.837Z,11.79
2022-10-07T05:24:11.741Z,11.80
2022-10-07T05:26:41.546Z,11.79
2022-10-07T05:29:10.877Z,11.75
2022-10-07T05:31:45.552Z,11.73
2022-10-07T05:34:17.403Z,11.75
2022-10-07T05:36:47.467Z,11.76
2022-10-07T05:39:17.249Z,11.78
2022-10-07T05:41:52.605Z,11.73
2022-10-07T05:44:26.425Z,11.72
2022-10-07T05:46:58.312Z,11.69
2022-10-07T05:49:27.855Z,11.69
2022-10-07T05:51:57.377Z,11.72
2022-10-07T05:54:27.157Z,11.82
2022-10-07T05:56:57.890Z,11.80
2022-10-07T05:59:27.362Z,11.73
2022-10-07T06:02:00.145Z,11.70
2022-10-07T06:04:29.770Z,11.69
2022-10-07T06:06:58.196Z,11.69
2022-10-07T06:09:45.717Z,11.74
2022-10-07T06:12:35.238Z,11.77
2022-10-07T06:15:10.180Z,11.74
2022-10-07T06:17:45.680Z,11.70
2022-10-07T06:20:17.537Z,11.70
2022-10-07T06:22:47.031Z,11.70
2022-10-07T06:25:19.171Z,11.75
2022-10-07T06:27:53.820Z,11.78
2022-10-07T06:30:23.094Z,11.83
2022-10-07T06:32:52.159Z,11.85
2022-10-07T06:35:20.711Z,11.84
2022-10-07T06:37:51.616Z,11.86
2022-10-07T06:40:22.093Z,11.92
2022-10-07T06:42:50.911Z,12.01
2022-10-07T06:45:43.149Z,12.05
2022-10-07T06:48:13.463Z,12.09
2022-10-07T06:50:50.860Z,12.18
2022-10-07T06:53:19.831Z,12.22
2022-10-07T06:55:51.635Z,12.33
2022-10-07T06:58:23.049Z,12.38
2022-10-07T07:00:53.023Z,12.50
2022-10-07T07:03:24.677Z,12.57
2022-10-07T07:05:55.002Z,12.63
2022-10-07T07:08:29.482Z,12.68
2022-10-07T07:11:03.658Z,12.74
2022-10-07T07:13:32.731Z,12.83
2022-10-07T07:16:01.736Z,12.91
2022-10-07T07:18:34.652Z,12.96
2022-10-07T07:21:04.874Z,13.06
2022-10-07T07:23:34.232Z,13.19
2022-10-07T07:26:04.432Z,13.30
2022-10-07T07:28:33.725Z,13.37
2022-10-07T07:31:09.921Z,13.47
2022-10-07T07:33:40.182Z,13.57
2022-10-07T07:36:16.716Z,13.67
2022-10-07T07:38:52.706Z,13.76
2022-10-07T07:41:25.737Z,13.89
2022-10-07T07:43:56.399Z,13.95
2022-10-07T07:46:27.417Z,14.03
2022-10-07T07:48:58.849Z,14.11
2022-10-07T07:51:28.139Z,14.17
2022-10-07T07:53:58.377Z,14.24
2022-10-07T07:56:31.849Z,14.28
2022-10-07T07:59:01.594Z,14.26
2022-10-07T08:01:32.111Z,14.28
2022-10-07T08:04:01.527Z,14.22
2022-10-07T08:06:31.508Z,14.27
2022-10-07T08:09:01.948Z,14.23
2022-10-07T08:11:33.290Z,14.20
2022-10-07T08:14:04.165Z,14.24
2022-10-07T08:16:36.790Z,14.27
2022-10-07T08:19:06.882Z,14.18
2022-10-07T08:21:35.285Z,14.06
2022-10-07T08:24:08.659Z,14.02
2022-10-07T08:26:41.011Z,14.04
2022-10-07T08:29:14.026Z,14.06
2022-10-07T08:31:43.439Z,13.99
2022-10-07T08:34:12.966Z,13.95
2022-10-07T08:36:44.088Z,13.83
2022-10-07T08:39:12.785Z,13.81
2022-10-07T08:41:50.318Z,13.94
2022-10-07T08:44:24.565Z,13.95
2022-10-07T08:47:11.987Z,14.07
2022-10-07T08:49:53.895Z,14.14
2022-10-07T08:52:41.662Z,14.18
2022-10-07T08:55:18.638Z,14.26
2022-10-07T08:58:14.055Z,14.34
2022-10-07T09:00:50.493Z,14.47
2022-10-07T09:03:27.944Z,14.50
2022-10-07T09:05:59.530Z,14.51
2022-10-07T09:08:33.319Z,14.61
2022-10-07T09:11:15.747Z,14.74
2022-10-07T09:13:49.739Z,14.73
2022-10-07T09:16:24.293Z,14.85
2022-10-07T09:18:56.117Z,14.93
2022-10-07T09:21:34.138Z,14.95
2022-10-07T09:24:16.919Z,14.97
2022-10-07T09:26:46.858Z,15.10
2022-10-07T09:29:20.389Z,15.16
2022-10-07T09:31:49.795Z,15.13
2022-10-07T09:34:22.397Z,15.09
2022-10-07T09:37:23.144Z,15.08
2022-10-07T09:39:54.596Z,15.01
2022-10-07T09:42:35.223Z,15.15
2022-10-07T09:45:20.035Z,15.16
2022-10-07T09:47:52.661Z,15.13
2022-10-07T09:50:34.590Z,15.12
2022-10-07T09:53:03.222Z,15.16
2022-10-07T09:55:38.186Z,15.20
2022-10-07T09:58:17.601Z,15.21
2022-10-07T10:00:49.746Z,15.23
2022-10-07T10:03:19.836Z,15.31
2022-10-07T10:05:55.553Z,15.27
2022-10-07T10:08:28.695Z,15.39
2022-10-07T10:10:58.725Z,15.44
2022-10-07T10:13:33.054Z,15.54
2022-10-07T10:16:05.121Z,15.54
2022-10-07T10:18:37.145Z,15.51
2022-10-07T10:21:22.064Z,15.49
2022-10-07T10:23:52.674Z,15.47
2022-10-07T10:26:33.924Z,15.51
2022-10-07T10:29:14.243Z,15.58
2022-10-07T10:32:02.660Z,15.69
2022-10-07T10:34:43.125Z,15.99
2022-10-07T10:37:19.051Z,16.07
2022-10-07T10:39:58.620Z,16.02
2022-10-07T10:42:36.975Z,16.04
2022-10-07T10:45:18.695Z,16.06
2022-10-07T10:48:03.806Z,16.13
2022-10-07T10:50:41.585Z,16.25
2022-10-07T10:53:24.630Z,16.32
2022-10-07T10:56:08.656Z,16.50
2022-10-07T10:58:53.734Z,16.64
2022-10-07T11:01:31.634Z,16.64
2022-10-07T11:04:30.606Z,16.63
2022-10-07T11:07:02.810Z,16.73
2022-10-07T11:09:40.015Z,16.92
2022-10-07T11:12:22.325Z,17.10
2022-10-07T11:14:58.211Z,17.22
2022-10-07T11:17:32.425Z,17.44
2022-10-07T11:20:13.831Z,18.11
2022-10-07T11:22:49.554Z,18.60
2022-10-07T11:25:28.676Z,18.47
2022-10-07T11:28:07.179Z,18.56
2022-10-07T11:30:44.061Z,18.76
2022-10-07T11:33:19.085Z,18.83
2022-10-07T11:35:55.212Z,18.87
2022-10-07T11:38:29.006Z,18.77
2022-10-07T11:41:02.456Z,19.30
2022-10-07T11:43:35.651Z,19.95
2022-10-07T11:46:11.708Z,20.14
2022-10-07T11:48:46.750Z,20.36
2022-10-07T11:51:23.547Z,20.77
2022-10-07T11:53:55.515Z,21.17
2022-10-07T11:56:27.047Z,21.41
2022-10-07T11:59:01.971Z,21.63
2022-10-07T12:01:48.785Z,21.97
2022-10-07T12:04:38.687Z,22.34
2022-10-07T12:07:49.786Z,22.57
2022-10-07T12:10:26.990Z,22.82
2022-10-07T12:12:58.626Z,23.02
2022-10-07T12:15:35.052Z,23.19
2022-10-07T12:18:28.266Z,23.36
2022-10-07T12:21:09.686Z,23.57
2022-10-07T12:24:11.335Z,23.86
2022-10-07T12:26:47.391Z,24.03
2022-10-07T12:29:35.496Z,24.16
2022-10-07T12:32:05.318Z,24.34
2022-10-07T12:34:43.406Z,24.26
2022-10-07T12:37:50.554Z,23.80
2022-10-07T12:40:25.741Z,23.77
2022-10-07T12:43:06.389Z,23.80
2022-10-07T12:45:37.059Z,23.92
2022-10-07T12:48:06.427Z,24.24
2022-10-07T12:50:35.050Z,24.53
2022-10-07T12:53:04.980Z,24.67
2022-10-07T12:55:38.495Z,24.47
2022-10-07T12:58:46.048Z,24.40
2022-10-07T13:01:23.079Z,24.43
2022-10-07T13:04:17.058Z,24.19
2022-10-07T13:07:39.210Z,24.44
2022-10-07T13:10:33.136Z,24.64
2022-10-07T13:13:06.028Z,24.85
2022-10-07T13:15:44.291Z,24.81
2022-10-07T13:18:20.957Z,24.50
2022-10-07T13:21:12.523Z,24.57
2022-10-07T13:23:41.018Z,24.74
2022-10-07T13:26:14.606Z,24.74
2022-10-07T13:28:48.247Z,24.87
2022-10-07T13:31:22.030Z,24.85
2022-10-07T13:33:51.513Z,24.92
2022-10-07T13:36:22.995Z,25.28
2022-10-07T13:38:54.042Z,25.51
2022-10-07T13:41:27.579Z,25.67
2022-10-07T13:44:00.355Z,25.32
2022-10-07T13:46:32.868Z,25.38
2022-10-07T13:49:02.592Z,25.10
2022-10-07T13:51:34.641Z,24.88
2022-10-07T13:54:05.986Z,24.73
2022-10-07T13:56:38.903Z,24.60
2022-10-07T13:59:08.019Z,24.78
2022-10-07T14:01:41.064Z,24.90
2022-10-07T14:04:16.206Z,24.92
2022-10-07T14:06:55.987Z,24.21
2022-10-07T14:09:44.931Z,24.09
2022-10-07T14:12:16.938Z,24.27
2022-10-07T14:14:49.359Z,24.28
2022-10-07T14:17:28.540Z,24.23
2022-10-07T14:20:01.540Z,24.46
2022-10-07T14:22:35.067Z,24.58
2022-10-07T14:25:05.818Z,24.80
2022-10-07T14:28:11.818Z,24.77
2022-10-07T14:30:59.753Z,24.87
2022-10-07T14:33:59.047Z,25.10
2022-10-07T14:36:28.196Z,25.20
2022-10-07T14:38:59.889Z,25.04
2022-10-07T14:41:29.995Z,25.07
2022-10-07T14:44:00.522Z,25.04
2022-10-07T14:46:29.712Z,24.74
2022-10-07T14:48:59.693Z,24.42
2022-10-07T14:51:30.150Z,24.11
2022-10-07T14:54:02.948Z,23.99
2022-10-07T14:56:33.547Z,23.88
2022-10-07T14:59:02.871Z,23.97
2022-10-07T15:01:31.308Z,24.03
2022-10-07T15:04:01.871Z,24.18
2022-10-07T15:06:30.919Z,24.13
2022-10-07T15:08:59.933Z,24.16
2022-10-07T15:11:29.117Z,24.10
2022-10-07T15:13:58.250Z,23.89
2022-10-07T15:16:28.802Z,23.71
2022-10-07T15:18:58.309Z,23.59
2022-10-07T15:21:29.370Z,23.60
2022-10-07T15:23:58.102Z,23.65
2022-10-07T15:26:26.456Z,23.54
2022-10-07T15:28:57.843Z,23.36
2022-10-07T15:31:28.265Z,23.31
2022-10-07T15:33:58.207Z,23.14
2022-10-07T15:36:30.063Z,22.96
2022-10-07T15:39:02.437Z,22.89
2022-10-07T15:41:34.203Z,22.80
2022-10-07T15:44:04.372Z,22.80
2022-10-07T15:46:33.476Z,22.74
2022-10-07T15:49:03.554Z,22.73
2022-10-07T15:51:35.571Z,22.60
2022-10-07T15:54:04.295Z,22.48
2022-10-07T15:56:34.022Z,22.27
2022-10-07T15:59:02.554Z,22.24
2022-10-07T16:01:32.845Z,22.14
2022-10-07T16:04:03.406Z,22.06
2022-10-07T16:06:36.951Z,21.94
2022-10-07T16:09:06.522Z,21.79
2022-10-07T16:11:35.948Z,21.68
2022-10-07T16:14:04.436Z,21.51
2022-10-07T16:16:33.926Z,21.39
2022-10-07T16:19:02.566Z,21.21
2022-10-07T16:21:34.726Z,21.11
2022-10-07T16:24:05.187Z,20.85
2022-10-07T16:26:35.857Z,20.74
2022-10-07T16:29:23.966Z,20.62
2022-10-07T16:31:58.343Z,20.49
2022-10-07T16:34:28.857Z,20.35
2022-10-07T16:36:59.689Z,20.26
2022-10-07T16:39:28.594Z,20.13
2022-10-07T16:41:58.198Z,19.88
2022-10-07T16:44:28.152Z,19.83
2022-10-07T16:46:58.549Z,19.75
2022-10-07T16:49:29.551Z,19.63
2022-10-07T16:51:59.591Z,19.50
2022-10-07T16:54:30.334Z,19.26
2022-10-07T16:56:59.212Z,19.11
2022-10-07T16:59:27.608Z,19.01
2022-10-07T17:02:00.497Z,18.97
2022-10-07T17:04:29.159Z,18.84
2022-10-07T17:06:59.031Z,18.80
2022-10-07T17:09:27.380Z,18.69
2022-10-07T17:11:57.176Z,18.71
2022-10-07T17:14:26.412Z,18.68
2022-10-07T17:16:58.233Z,18.64
2022-10-07T17:19:29.392Z,18.53
2022-10-07T17:21:59.622Z,18.40
2022-10-07T17:24:28.833Z,18.25
2022-10-07T17:26:57.241Z,18.13
2022-10-07T17:29:26.914Z,18.07
2022-10-07T17:31:56.063Z,18.00
2022-10-07T17:34:24.419Z,17.86
2022-10-07T17:36:54.241Z,17.84
2022-10-07T17:39:24.662Z,17.83
2022-10-07T17:41:53.035Z,17.83
2022-10-07T17:44:22.310Z,17.88
2022-10-07T17:46:51.047Z,17.84
2022-10-07T17:49:21.228Z,17.77
2022-10-07T17:51:49.761Z,17.67
2022-10-07T17:54:18.719Z,17.70
2022-10-07T17:56:48.434Z,17.65
2022-10-07T17:59:17.517Z,17.48
2022-10-07T18:01:46.091Z,17.43
2022-10-07T18:04:22.543Z,17.27
2022-10-07T18:06:54.406Z,17.29
2022-10-07T18:09:24.418Z,17.23
2022-10-07T18:12:11.881Z,17.06
2022-10-07T18:14:58.264Z,17.00
2022-10-07T18:17:27.278Z,17.04
2022-10-07T18:19:57.270Z,16.98
2022-10-07T18:22:25.637Z,16.88
2022-10-07T18:24:57.072Z,16.86
2022-10-07T18:27:27.782Z,16.90
2022-10-07T18:29:56.743Z,16.89
2022-10-07T18:32:25.770Z,16.76
2022-10-07T18:34:54.228Z,16.81
2022-10-07T18:37:24.286Z,16.73
2022-10-07T18:39:52.837Z,16.78
2022-10-07T18:42:21.733Z,16.81
2022-10-07T18:44:52.431Z,16.76
2022-10-07T18:47:21.016Z,16.77
2022-10-07T18:49:49.834Z,16.70
2022-10-07T18:52:19.037Z,16.73
2022-10-07T18:54:47.872Z,16.70
2022-10-07T18:57:16.623Z,16.70
2022-10-07T18:59:45.065Z,16.66
2022-10-07T19:02:15.735Z,16.56
2022-10-07T19:04:44.139Z,16.44
2022-10-07T19:07:13.454Z,16.36
2022-10-07T19:09:42.264Z,16.25
2022-10-07T19:12:30.991Z,16.14
2022-10-07T19:14:58.382Z,16.07
2022-10-07T19:17:29.283Z,16.04
2022-10-07T19:20:02.033Z,15.99
2022-10-07T19:22:30.493Z,15.98
2022-10-07T19:25:17.081Z,16.04
2022-10-07T19:27:45.694Z,16.12
2022-10-07T19:30:14.464Z,16.16
2022-10-07T19:32:44.904Z,16.12
2022-10-07T19:35:13.643Z,16.08
2022-10-07T19:37:42.404Z,16.00
2022-10-07T19:40:11.438Z,15.91
2022-10-07T19:42:40.695Z,15.89
2022-10-07T19:45:10.458Z,15.84
2022-10-07T19:47:39.123Z,15.75
2022-10-07T19:50:09.788Z,15.63
2022-10-07T19:52:38.702Z,15.68
2022-10-07T19:55:08.183Z,15.69
2022-10-07T19:57:37.390Z,15.71
2022-10-07T20:00:06.795Z,15.75
2022-10-07T20:02:40.785Z,15.62
2022-10-07T20:05:10.668Z,15.59
2022-10-07T20:07:40.134Z,15.47
2022-10-07T20:10:09.103Z,15.48
2022-10-07T20:12:39.337Z,15.50
2022-10-07T20:15:09.341Z,15.42
2022-10-07T20:17:38.823Z,15.45
2022-10-07T20:20:08.232Z,15.37
2022-10-07T20:22:39.294Z,15.23
2022-10-07T20:25:09.051Z,15.19
2022-10-07T20:27:37.427Z,15.15
2022-10-07T20:30:17.826Z,15.10
2022-10-07T20:32:46.687Z,15.09
2022-10-07T20:35:15.283Z,15.06
2022-10-07T20:37:45.015Z,14.85
2022-10-07T20:40:31.189Z,14.92
2022-10-07T20:43:00.802Z,14.97
2022-10-07T20:45:29.177Z,15.00
2022-10-07T20:47:59.545Z,15.00
2022-10-07T20:50:28.296Z,14.96
2022-10-07T20:52:58.140Z,14.96
2022-10-07T20:55:26.538Z,14.95
2022-10-07T20:57:54.934Z,14.89
2022-10-07T21:00:24.162Z,14.93
2022-10-07T21:02:52.602Z,14.93
2022-10-07T21:05:21.412Z,14.79
2022-10-07T21:07:54.514Z,14.81
2022-10-07T21:10:24.675Z,14.82
2022-10-07T21:12:53.910Z,14.77
2022-10-07T21:15:22.698Z,14.62
2022-10-07T21:17:51.050Z,14.55
2022-10-07T21:20:20.534Z,14.51
2022-10-07T21:22:49.886Z,14.49
2022-10-07T21:25:18.261Z,14.43
2022-10-07T21:27:48.542Z,14.43
2022-10-07T21:30:17.078Z,14.41
2022-10-07T21:32:47.111Z,14.47
2022-10-07T21:35:16.717Z,14.49
2022-10-07T21:37:46.243Z,14.35
2022-10-07T21:40:14.947Z,14.36
2022-10-07T21:42:43.685Z,14.30
2022-10-07T21:45:15.379Z,14.31
2022-10-07T21:47:43.838Z,14.31
2022-10-07T21:50:13.674Z,14.33
2022-10-07T21:52:44.385Z,14.24
2022-10-07T21:55:13.830Z,14.11
2022-10-07T21:57:42.586Z,14.10
2022-10-07T22:00:12.943Z,14.07
2022-10-07T22:02:43.019Z,14.04
2022-10-07T22:05:14.664Z,14.06
2022-10-07T22:08:00.760Z,14.04
2022-10-07T22:10:30.078Z,13.98
2022-10-07T22:12:59.091Z,13.91
2022-10-07T22:15:27.776Z,13.98
2022-10-07T22:17:57.549Z,14.03
2022-10-07T22:20:26.753Z,14.01
2022-10-07T22:22:59.742Z,13.96
2022-10-07T22:25:28.545Z,13.92
2022-10-07T22:27:57.309Z,13.98
2022-10-07T22:30:25.772Z,14.02
2022-10-07T22:32:55.182Z,14.00
2022-10-07T22:35:33.666Z,14.02
2022-10-07T22:38:02.871Z,13.97
2022-10-07T22:40:32.015Z,13.94
2022-10-07T22:43:00.365Z,13.99
2022-10-07T22:45:29.449Z,14.02
2022-10-07T22:47:57.857Z,13.99
2022-10-07T22:50:27.863Z,14.01
2022-10-07T22:52:56.751Z,13.97
2022-10-07T22:55:26.494Z,13.95
2022-10-07T22:57:55.187Z,13.89
2022-10-07T23:00:23.541Z,13.89
2022-10-07T23:02:54.410Z,13.82
2022-10-07T23:05:23.426Z,13.70
2022-10-07T23:07:53.225Z,13.62
2022-10-07T23:10:22.648Z,13.52
2022-10-07T23:12:51.035Z,13.39
2022-10-07T23:15:20.032Z,13.33
2022-10-07T23:17:48.494Z,13.32
2022-10-07T23:20:16.963Z,13.26
2022-10-07T23:22:47.432Z,13.30
2022-10-07T23:25:17.565Z,13.29
2022-10-07T23:27:46.840Z,13.32
2022-10-07T23:30:15.247Z,13.31
2022-10-07T23:32:46.160Z,13.31
2022-10-07T23:35:14.882Z,13.35
2022-10-07T23:37:44.825Z,13.34
2022-10-07T23:40:13.205Z,13.28
2022-10-07T23:42:42.959Z,13.18
2022-10-07T23:45:13.276Z,13.05
2022-10-07T23:47:43.511Z,12.96
2022-10-07T23:50:13.050Z,12.90
2022-10-07T23:52:41.752Z,12.94
2022-10-07T23:55:12.116Z,13.02
2022-10-07T23:57:41.349Z,12.99
